< < Back
Terminal Aerodrome Forecast


Current Version              Previous Versions:   1  2  3  4  5  6  7  8  9  

Terminal Aerodrome Forecast

211
FTUS42 KTAE 310853 AAA
TAFABY
TAF AMD
KABY 310853Z 3109/0106 00000KT 5SM BR SCT002
      TEMPO 3109/3113 2SM BR OVC002
     FM311300 22007KT P6SM SCT025
     FM311800 23007KT P6SM VCTS BKN035CB
     FM010000 18004KT P6SM SCT030 BKN100=

Latest METAR

066
SAUS70 KWBC 310900 RRB
MTRABY
METAR KABY 310853Z AUTO 25003KT 1 1/2SM BR OVC002 24/24 A2993 RMK AO2
SLP132 T02440239 58007


USA.gov is the U.S. government's official web portal to all federal, state and local government web resources and services.